Time;durP1;ratioP1;P1;durP2;ratioP2;P2;SDS_P1;SDS_P2;PMS_P1;PMS_P2;Temp;Humidity;BMP_temperature;BMP_pressure;BME280_temperature;BME280_humidity;BME280_pressure;Samples;Min_cycle;Max_cycle;Signal;HPM_P1;HPM_P2
2023/01/04 00:00:29;;;;;;;26.00;12.93;;;;;;;4.31;100.00;101368.09;5045805;28;20191;-77
2023/01/04 00:02:55;;;;;;;23.47;11.93;;;;;;;4.28;100.00;101363.88;5047173;28;20106;-77
2023/01/04 00:05:20;;;;;;;25.00;11.63;;;;;;;4.42;100.00;101358.50;5045958;28;20561;-76
2023/01/04 00:07:45;;;;;;;18.87;10.37;;;;;;;4.34;100.00;101346.75;5029244;28;20461;-76
2023/01/04 00:10:10;;;;;;;21.90;9.53;;;;;;;4.36;100.00;101343.06;5029578;28;20447;-76
2023/01/04 00:12:36;;;;;;;25.77;11.40;;;;;;;4.34;100.00;101317.69;5047244;28;20613;-77
2023/01/04 00:15:01;;;;;;;20.70;9.70;;;;;;;4.43;100.00;101331.09;5045767;28;20017;-76
2023/01/04 00:17:27;;;;;;;20.80;10.20;;;;;;;4.53;100.00;101331.28;5047229;28;20063;-77
2023/01/04 00:19:52;;;;;;;18.70;9.17;;;;;;;4.49;100.00;101306.00;5029582;28;20033;-77
2023/01/04 00:22:18;;;;;;;18.90;8.27;;;;;;;4.50;100.00;101299.78;5045906;28;20037;-77
2023/01/04 00:24:43;;;;;;;15.67;8.03;;;;;;;4.57;100.00;101289.63;5045905;28;20040;-77
2023/01/04 00:27:08;;;;;;;14.23;7.23;;;;;;;4.57;100.00;101286.97;5045810;28;20028;-77
2023/01/04 00:29:34;;;;;;;14.03;7.73;;;;;;;4.53;100.00;101262.53;5029375;28;20056;-77
2023/01/04 00:31:59;;;;;;;13.60;8.17;;;;;;;4.57;100.00;101264.00;5028635;28;20136;-77
2023/01/04 00:34:25;;;;;;;16.08;8.63;;;;;;;4.57;100.00;101258.72;5029106;28;20472;-77
2023/01/04 00:36:50;;;;;;;16.83;8.47;;;;;;;4.60;100.00;101253.19;5045308;28;20043;-78
2023/01/04 00:39:15;;;;;;;17.30;7.90;;;;;;;4.61;100.00;101249.63;5028947;28;20509;-76
2023/01/04 00:41:47;;;;;;;12.80;6.67;;;;;;;4.67;100.00;101242.19;5044965;28;20512;-77
2023/01/04 00:44:13;;;;;;;12.23;6.85;;;;;;;4.70;100.00;101236.66;5045680;28;20032;-77
2023/01/04 00:46:39;;;;;;;11.93;6.13;;;;;;;4.71;100.00;101233.06;5045523;28;20047;-77
2023/01/04 00:49:06;;;;;;;9.45;5.78;;;;;;;4.71;100.00;101233.06;5045387;28;20041;-77
2023/01/04 00:51:34;;;;;;;12.35;5.75;;;;;;;4.58;100.00;101199.56;5045215;28;20485;-77
2023/01/04 00:54:00;;;;;;;8.70;5.68;;;;;;;4.64;100.00;101200.94;5045426;28;20070;-77
2023/01/04 00:56:28;;;;;;;11.00;5.20;;;;;;;4.77;100.00;101209.63;5045114;28;20436;-77
2023/01/04 00:58:55;;;;;;;8.70;4.47;;;;;;;4.82;100.00;101196.06;5046536;28;20482;-76
2023/01/04 01:01:20;;;;;;;8.93;4.47;;;;;;;4.85;100.00;101190.56;5045160;28;20449;-77
2023/01/04 01:03:46;;;;;;;8.80;4.65;;;;;;;4.84;100.00;101173.81;5045571;28;20036;-77
2023/01/04 01:06:11;;;;;;;8.70;3.92;;;;;;;4.83;100.00;101164.22;5025332;28;20037;-77
2023/01/04 01:08:37;;;;;;;8.45;3.63;;;;;;;4.89;100.00;101157.59;5043654;28;20028;-77
2023/01/04 01:11:08;;;;;;;9.60;3.75;;;;;;;4.98;100.00;101142.84;5045064;28;20406;-77
2023/01/04 01:13:34;;;;;;;11.02;3.75;;;;;;;4.94;100.00;101129.03;5045171;28;20060;-77
2023/01/04 01:16:08;;;;;;;8.65;3.72;;;;;;;4.85;100.00;101103.25;5046304;28;20029;-78
2023/01/04 01:18:36;;;;;;;9.63;3.28;;;;;;;4.79;100.00;101086.03;5045218;28;20048;-77
2023/01/04 01:21:06;;;;;;;10.20;2.92;;;;;;;4.83;100.00;101091.94;5028419;28;20029;-77
2023/01/04 01:23:31;;;;;;;8.05;3.65;;;;;;;4.88;100.00;101081.84;5044874;28;20032;-77
2023/01/04 01:26:04;;;;;;;7.60;3.35;;;;;;;4.83;100.00;101074.25;5046273;28;20037;-78
2023/01/04 01:28:30;;;;;;;5.95;3.22;;;;;;;4.89;100.00;101069.47;5045140;28;20040;-77
2023/01/04 01:30:58;;;;;;;7.75;3.08;;;;;;;4.92;100.00;101062.13;5046119;28;20021;-77
2023/01/04 01:33:25;;;;;;;10.52;3.33;;;;;;;4.94;100.00;101040.84;5046665;28;20043;-77
2023/01/04 01:35:50;;;;;;;7.50;2.70;;;;;;;4.94;100.00;101048.78;5049011;28;20040;-77
2023/01/04 01:38:15;;;;;;;5.93;2.90;;;;;;;4.92;100.00;101024.25;5048915;28;20033;-77
2023/01/04 01:40:42;;;;;;;6.67;3.13;;;;;;;4.96;100.00;101015.09;5032205;28;20359;-77
2023/01/04 01:43:20;;;;;;;5.13;3.35;;;;;;;4.94;100.00;101012.59;5049181;28;20067;-77
2023/01/04 01:45:56;;;;;;;7.22;3.03;;;;;;;4.87;100.00;100995.50;5048647;28;20041;-77
2023/01/04 01:48:25;;;;;;;;;;;;;;;4.93;100.00;101000.31;5032517;28;20057;-77
2023/01/04 01:51:01;;;;;;;5.45;2.60;;;;;;;4.96;100.00;101000.06;5048416;28;20660;-77
2023/01/04 01:53:28;;;;;;;9.10;2.63;;;;;;;4.98;100.00;100982.25;5048755;28;20036;-77
2023/01/04 01:55:56;;;;;;;5.60;2.45;;;;;;;5.03;100.00;100980.13;5031791;28;20546;-76
2023/01/04 01:58:30;;;;;;;4.97;2.90;;;;;;;4.96;100.00;100952.44;5031840;28;20474;-77
2023/01/04 02:00:55;;;;;;;4.38;2.28;;;;;;;4.93;100.00;100944.75;5031770;28;20033;-77
2023/01/04 02:03:31;;;;;;;5.93;2.77;;;;;;;5.00;100.00;100943.28;5031335;28;20055;-77
2023/01/04 02:06:00;;;;;;;6.93;2.90;;;;;;;5.03;100.00;100937.78;5039382;28;20552;-77
2023/01/04 02:08:26;;;;;;;5.60;2.72;;;;;;;4.99;100.00;100916.97;5048540;28;20402;-77
2023/01/04 02:10:51;;;;;;;6.00;2.03;;;;;;;5.05;100.00;100919.94;5048190;28;20037;-75
2023/01/04 02:13:22;;;;;;;4.95;2.13;;;;;;;5.11;100.00;100915.16;5048558;28;20052;-77
2023/01/04 02:16:38;;;;;;;4.10;2.33;;;;;;;5.10;100.00;100893.13;5030595;28;20079;-77
2023/01/04 02:19:32;;;;;;;3.80;1.63;;;;;;;5.15;100.00;100863.63;5010268;28;20044;-77
2023/01/04 02:21:57;;;;;;;9.15;2.20;;;;;;;5.17;100.00;100854.59;5041055;28;20037;-77
2023/01/04 02:24:26;;;;;;;7.10;3.07;;;;;;;5.11;100.00;100851.63;5048134;28;20083;-77
2023/01/04 02:27:28;;;;;;;8.02;2.70;;;;;;;5.06;100.00;100842.25;5046992;28;20489;-77
2023/01/04 02:30:20;;;;;;;8.73;2.13;;;;;;;5.09;100.00;100825.28;5049157;28;20029;-77
2023/01/04 02:33:09;;;;;;;5.22;2.05;;;;;;;5.11;100.00;100807.47;5047845;28;20037;-77
2023/01/04 02:36:06;;;;;;;9.95;1.67;;;;;;;5.19;100.00;100805.03;5047771;28;20426;-77
2023/01/04 02:38:52;;;;;;;3.25;1.80;;;;;;;5.21;100.00;100795.16;5030128;28;20052;-77
2023/01/04 02:41:32;;;;;;;6.43;1.88;;;;;;;5.19;100.00;100773.25;5048430;28;20041;-77
2023/01/04 02:47:07;;;;;;;5.68;1.70;;;;;;;5.27;100.00;100754.13;5038999;28;20035;-78
2023/01/04 02:52:18;;;;;;;7.68;1.75;;;;;;;5.25;100.00;100703.94;5047487;28;20651;-77
2023/01/04 02:54:45;;;;;;;6.75;2.35;;;;;;;5.19;100.00;100703.63;5029920;28;20028;-76
2023/01/04 02:57:32;;;;;;;4.38;2.00;;;;;;;5.25;100.00;100719.81;5047564;28;20033;-77
2023/01/04 03:00:10;;;;;;;5.85;1.90;;;;;;;5.31;100.00;100713.16;5039552;28;20578;-77
2023/01/04 03:06:16;;;;;;;5.43;1.70;;;;;;;5.27;100.00;100707.31;5047395;28;20162;-77
2023/01/04 03:09:05;;;;;;;5.65;1.60;;;;;;;5.30;100.00;100708.84;5048028;28;20037;-77
2023/01/04 03:14:53;;;;;;;5.75;2.72;;;;;;;5.27;100.00;100698.53;5049891;28;20051;-78
2023/01/04 03:17:22;;;;;;;4.90;1.98;;;;;;;5.18;100.00;100696.66;5052454;28;20029;-78
2023/01/04 03:19:53;;;;;;;5.60;1.95;;;;;;;5.21;100.00;100707.81;5052823;28;20079;-78
2023/01/04 03:36:46;;;;;;;8.75;1.83;;;;;;;5.12;100.00;100724.47;5046422;28;20105;-78
2023/01/04 03:48:29;;;;;;;6.35;1.88;;;;;;;5.12;100.00;100731.56;5013431;28;20040;-74
2023/01/04 03:51:21;;;;;;;4.38;2.20;;;;;;;5.11;100.00;100754.53;5003515;28;20025;-71
2023/01/04 03:53:53;;;;;;;6.88;3.22;;;;;;;5.13;100.00;100751.75;4998350;28;20077;-74
2023/01/04 03:56:21;;;;;;;7.50;2.03;;;;;;;5.12;100.00;100735.03;4998168;28;20125;-74
2023/01/04 03:58:48;;;;;;;6.47;1.42;;;;;;;5.13;100.00;100752.63;4981447;28;20023;-70
2023/01/04 04:01:16;;;;;;;5.93;2.08;;;;;;;5.08;100.00;100750.34;4981370;28;20069;-74
2023/01/04 04:09:09;;;;;;;8.30;2.30;;;;;;;5.11;100.00;100753.72;4992810;28;20029;-70
2023/01/04 04:11:34;;;;;;;5.83;1.80;;;;;;;5.12;100.00;100750.91;5006503;28;20450;-74
2023/01/04 04:13:59;;;;;;;5.33;2.60;;;;;;;5.12;100.00;100739.50;5001447;28;20048;-73
2023/01/04 04:16:26;;;;;;;10.63;2.93;;;;;;;5.08;100.00;100747.72;5002118;28;20073;-70
2023/01/04 04:18:51;;;;;;;6.07;2.38;;;;;;;5.06;100.00;100744.34;5003423;28;20093;-73
2023/01/04 04:21:17;;;;;;;6.53;2.38;;;;;;;5.05;100.00;100739.16;5006289;28;20034;-71
2023/01/04 04:23:43;;;;;;;11.63;2.50;;;;;;;5.03;100.00;100719.94;4987096;28;20084;-73
2023/01/04 04:26:09;;;;;;;7.90;2.22;;;;;;;5.02;100.00;100721.75;5005229;28;20034;-74
2023/01/04 04:28:34;;;;;;;9.60;2.28;;;;;;;5.05;100.00;100729.41;5004213;28;20040;-73
2023/01/04 04:31:00;;;;;;;4.35;1.63;;;;;;;5.10;100.00;100736.13;5005438;28;20064;-73
2023/01/04 04:33:25;;;;;;;10.43;2.00;;;;;;;5.10;100.00;100734.31;4998492;28;20041;-71
2023/01/04 04:35:53;;;;;;;8.80;3.77;;;;;;;5.03;100.00;100731.38;5005831;28;20041;-74
2023/01/04 04:38:18;;;;;;;5.53;2.10;;;;;;;5.06;100.00;100730.28;5006282;28;20649;-73
2023/01/04 04:43:28;;;;;;;6.15;2.38;;;;;;;5.03;100.00;100719.94;4998763;28;20042;-74
2023/01/04 04:45:54;;;;;;;5.87;2.30;;;;;;;5.05;100.00;100720.63;5001853;28;20029;-72
2023/01/04 04:48:19;;;;;;;6.95;2.67;;;;;;;5.05;100.00;100721.47;5002238;28;20407;-74
2023/01/04 04:50:44;;;;;;;4.93;2.03;;;;;;;5.07;100.00;100702.84;4986984;28;20621;-74
2023/01/04 04:53:10;;;;;;;13.07;2.30;;;;;;;5.01;100.00;100688.31;4985916;28;20483;-73
2023/01/04 04:55:35;;;;;;;8.03;2.37;;;;;;;5.02;100.00;100695.28;4995068;28;20450;-74
2023/01/04 04:58:00;;;;;;;6.67;2.30;;;;;;;5.07;100.00;100698.38;4980580;28;20032;-74
2023/01/04 05:00:26;;;;;;;5.37;2.00;;;;;;;5.05;100.00;100688.88;4998865;28;20034;-73
2023/01/04 05:02:52;;;;;;;5.50;2.15;;;;;;;5.08;100.00;100672.78;4994916;28;20582;-73
2023/01/04 05:05:17;;;;;;;10.07;2.75;;;;;;;5.10;100.00;100669.97;4996669;28;20479;-73
2023/01/04 05:07:43;;;;;;;7.10;2.20;;;;;;;5.07;100.00;100668.44;4995346;28;20486;-73
2023/01/04 05:10:08;;;;;;;6.27;3.00;;;;;;;5.10;100.00;100662.03;4988458;28;20117;-75
2023/01/04 05:15:18;;;;;;;5.38;2.28;;;;;;;5.08;100.00;100647.16;5000493;28;20051;-74
2023/01/04 05:17:43;;;;;;;8.37;2.73;;;;;;;5.08;100.00;100636.56;5002880;28;20418;-74
2023/01/04 05:20:09;;;;;;;5.00;1.97;;;;;;;5.12;100.00;100644.22;5001903;28;20080;-73
2023/01/04 05:22:34;;;;;;;7.60;2.65;;;;;;;5.07;100.00;100640.16;5001544;28;20266;-75
2023/01/04 05:24:59;;;;;;;5.73;2.40;;;;;;;5.08;100.00;100622.50;4986656;28;20502;-74
2023/01/04 05:27:25;;;;;;;11.70;2.80;;;;;;;5.07;100.00;100608.41;4986783;28;20037;-74
2023/01/04 05:32:34;;;;;;;10.07;2.85;;;;;;;5.06;100.00;100596.16;4986353;28;20288;-74
2023/01/04 05:34:59;;;;;;;6.33;2.50;;;;;;;5.11;100.00;100581.69;4986379;28;20022;-75
2023/01/04 05:37:25;;;;;;;8.77;2.67;;;;;;;5.07;100.00;100576.66;5000324;28;20440;-76
2023/01/04 05:39:50;;;;;;;5.13;2.57;;;;;;;5.10;100.00;100572.06;4987399;28;20623;-75
2023/01/04 05:42:25;;;;;;;9.03;2.83;;;;;;;5.06;100.00;100559.09;5001380;28;20042;-74
2023/01/04 05:44:51;;;;;;;7.75;3.28;;;;;;;5.09;100.00;100563.28;5000735;28;20038;-75
2023/01/04 05:47:17;;;;;;;7.15;3.83;;;;;;;5.04;100.00;100546.97;4985513;28;20026;-75
2023/01/04 05:49:42;;;;;;;7.25;2.90;;;;;;;5.04;100.00;100534.56;4968881;28;20093;-74
2023/01/04 05:52:08;;;;;;;4.72;3.20;;;;;;;5.10;100.00;100548.25;4986284;28;20034;-75
2023/01/04 05:54:33;;;;;;;9.35;3.05;;;;;;;5.07;100.00;100536.94;5001366;28;20418;-74
2023/01/04 05:56:59;;;;;;;5.73;2.80;;;;;;;5.08;100.00;100522.78;4969017;28;20387;-75
2023/01/04 05:59:24;;;;;;;10.13;2.80;;;;;;;5.10;100.00;100513.84;4969072;28;20044;-75
2023/01/04 06:01:49;;;;;;;9.27;2.90;;;;;;;5.10;100.00;100506.75;4984702;28;20049;-73
2023/01/04 06:04:15;;;;;;;18.80;3.73;;;;;;;5.15;100.00;100501.91;4985166;28;20057;-75
2023/01/04 06:06:40;;;;;;;8.17;3.20;;;;;;;5.15;100.00;100490.47;4984701;28;20038;-74
2023/01/04 06:09:06;;;;;;;4.57;2.77;;;;;;;5.15;100.00;100496.63;4986387;28;20030;-74
2023/01/04 06:11:31;;;;;;;5.33;2.60;;;;;;;5.14;100.00;100483.50;4985615;28;20637;-73
2023/01/04 06:13:56;;;;;;;4.10;2.90;;;;;;;5.17;100.00;100483.22;4968892;28;20388;-75
2023/01/04 06:16:22;;;;;;;4.30;2.42;;;;;;;5.19;100.00;100468.06;5001004;28;20034;-73
2023/01/04 06:18:48;;;;;;;4.53;3.03;;;;;;;5.19;100.00;100460.94;4986328;28;20038;-76
2023/01/04 06:21:13;;;;;;;4.97;2.85;;;;;;;5.21;100.00;100451.06;4986103;28;20030;-75
2023/01/04 06:23:39;;;;;;;4.57;2.42;;;;;;;5.26;100.00;100440.91;4989636;28;20038;-74
2023/01/04 06:26:04;;;;;;;6.13;3.03;;;;;;;5.26;100.00;100438.25;4987887;28;20034;-74
2023/01/04 06:28:29;;;;;;;3.90;2.37;;;;;;;5.27;100.00;100442.59;4989244;28;20655;-75
2023/01/04 06:30:55;;;;;;;8.47;2.83;;;;;;;5.23;100.00;100435.06;4996231;28;20037;-74
2023/01/04 06:33:20;;;;;;;5.57;2.70;;;;;;;5.26;100.00;100438.25;4991166;28;20018;-73
2023/01/04 06:35:53;;;;;;;5.60;2.83;;;;;;;5.34;100.00;100418.22;4970691;28;20034;-75
2023/01/04 06:38:19;;;;;;;6.70;2.83;;;;;;;5.30;100.00;100388.53;4989910;28;20501;-75
2023/01/04 06:40:44;;;;;;;3.53;2.50;;;;;;;5.40;100.00;100402.63;5003738;28;20042;-75
2023/01/04 06:43:09;;;;;;;7.93;2.73;;;;;;;5.41;100.00;100399.00;4987606;28;20277;-75
2023/01/04 06:45:35;;;;;;;9.07;2.50;;;;;;;5.46;100.00;100420.63;4989966;28;20034;-73
2023/01/04 06:48:00;;;;;;;3.03;2.30;;;;;;;5.48;100.00;100407.25;5003966;28;20133;-76
2023/01/04 06:50:25;;;;;;;4.20;2.73;;;;;;;5.49;100.00;100383.25;5002479;28;20112;-75
2023/01/04 06:52:51;;;;;;;7.40;3.20;;;;;;;5.49;100.00;100377.97;4979785;28;20105;-74
2023/01/04 06:55:16;;;;;;;4.97;2.50;;;;;;;5.50;100.00;100392.91;4995089;28;20028;-75
2023/01/04 06:57:41;;;;;;;5.37;2.93;;;;;;;5.53;100.00;100362.66;4988665;28;20105;-74
2023/01/04 07:00:08;;;;;;;4.57;2.93;;;;;;;5.55;100.00;100352.75;4987387;28;20046;-72
2023/01/04 07:02:34;;;;;;;3.55;2.72;;;;;;;5.55;100.00;100333.34;4987970;28;20081;-75
2023/01/04 07:04:59;;;;;;;4.40;2.65;;;;;;;5.63;100.00;100355.53;5003301;28;20058;-73
2023/01/04 07:07:25;;;;;;;4.13;2.90;;;;;;;5.66;100.00;100349.13;4988540;28;20694;-75
2023/01/04 07:09:50;;;;;;;5.57;2.77;;;;;;;5.67;100.00;100348.97;4987900;28;20074;-75
2023/01/04 07:12:15;;;;;;;4.03;2.83;;;;;;;5.68;100.00;100355.94;4987028;28;20034;-74
2023/01/04 07:14:41;;;;;;;7.00;3.03;;;;;;;5.71;100.00;100323.91;5003963;28;20041;-75
2023/01/04 07:17:06;;;;;;;5.90;3.40;;;;;;;5.78;100.00;100320.66;4987983;28;20062;-75
2023/01/04 07:19:31;;;;;;;4.00;2.80;;;;;;;5.78;100.00;100318.84;5003146;28;20033;-74
2023/01/04 07:21:57;;;;;;;4.27;2.27;;;;;;;5.86;100.00;100340.16;5002984;28;20145;-72
2023/01/04 07:24:24;;;;;;;4.63;2.67;;;;;;;5.88;100.00;100319.69;5003341;28;20088;-75
2023/01/04 07:26:49;;;;;;;4.43;2.95;;;;;;;5.89;100.00;100313.38;4970605;28;20050;-76
2023/01/04 07:29:15;;;;;;;5.22;3.35;;;;;;;5.97;100.00;100322.47;4988193;28;20030;-76
2023/01/04 07:31:51;;;;;;;3.42;2.63;;;;;;;5.96;100.00;100304.91;4987466;28;20022;-76
2023/01/04 07:34:18;;;;;;;3.38;2.55;;;;;;;5.99;100.00;100310.75;4986993;28;20037;-75
2023/01/04 07:36:43;;;;;;;6.57;3.20;;;;;;;6.02;100.00;100299.88;5002392;28;20121;-75
2023/01/04 07:39:10;;;;;;;4.25;3.05;;;;;;;6.04;100.00;100299.72;4987859;28;20113;-75
2023/01/04 07:41:40;;;;;;;3.50;2.78;;;;;;;6.09;100.00;100303.63;4986299;28;20041;-76
2023/01/04 07:44:07;;;;;;;9.45;3.20;;;;;;;6.12;100.00;100278.63;4988681;28;20035;-76
2023/01/04 07:46:33;;;;;;;5.07;2.78;;;;;;;6.13;100.00;100277.66;4986164;28;20058;-72
2023/01/04 07:48:58;;;;;;;;;;;;;;;6.19;100.00;100273.59;4987026;28;20045;-74
2023/01/04 07:51:24;;;;;;;5.18;2.50;;;;;;;6.16;100.00;100279.16;4986213;28;19914;-75
2023/01/04 07:53:49;;;;;;;3.60;2.55;;;;;;;6.24;100.00;100277.47;4988802;28;20096;-75
2023/01/04 07:56:15;;;;;;;5.72;2.72;;;;;;;6.28;100.00;100262.94;4986008;28;20037;-75
2023/01/04 07:58:41;;;;;;;3.60;2.25;;;;;;;6.29;100.00;100271.72;4995202;28;20498;-73
2023/01/04 08:01:10;;;;;;;3.70;2.60;;;;;;;6.38;100.00;100262.06;4985841;28;20038;-75
2023/01/04 08:03:36;;;;;;;3.15;2.55;;;;;;;6.43;100.00;100259.81;4995167;28;20034;-75
2023/01/04 08:06:13;;;;;;;9.13;2.60;;;;;;;6.48;100.00;100265.50;4988809;28;20762;-75
2023/01/04 08:08:38;;;;;;;4.28;2.60;;;;;;;6.51;100.00;100265.22;4988375;28;20440;-75
2023/01/04 08:11:07;;;;;;;2.88;2.00;;;;;;;6.55;100.00;100267.44;4985569;28;20096;-75
2023/01/04 08:13:32;;;;;;;3.90;2.08;;;;;;;6.58;100.00;100274.25;4985678;28;20038;-73
2023/01/04 08:15:58;;;;;;;2.88;2.10;;;;;;;6.63;100.00;100255.25;5002216;28;20031;-75
2023/01/04 08:18:23;;;;;;;4.38;2.40;;;;;;;6.65;100.00;100262.06;4986364;28;20153;-73
2023/01/04 08:20:49;;;;;;;2.72;1.92;;;;;;;6.68;100.00;100253.78;4993633;28;20479;-75
2023/01/04 08:23:14;;;;;;;3.05;2.13;;;;;;;6.73;100.00;100256.00;5002052;28;20026;-75
2023/01/04 08:25:39;;;;;;;2.67;2.17;;;;;;;6.76;100.00;100253.88;4986625;28;20042;-75
2023/01/04 08:28:05;;;;;;;3.33;2.13;;;;;;;6.75;100.00;100241.59;4985663;28;20395;-75
2023/01/04 08:30:30;;;;;;;5.63;2.73;;;;;;;6.83;100.00;100251.44;4969366;28;20108;-75
2023/01/04 08:32:56;;;;;;;5.30;1.90;;;;;;;6.89;100.00;100258.00;5001893;28;20030;-75
2023/01/04 08:35:22;;;;;;;3.00;2.03;;;;;;;6.87;100.00;100244.88;4986503;28;20022;-73
2023/01/04 08:37:48;;;;;;;2.90;2.13;;;;;;;6.95;100.00;100241.44;4985548;28;20045;-74
2023/01/04 08:40:13;;;;;;;3.50;2.42;;;;;;;7.00;100.00;100252.47;5002076;28;20041;-76
2023/01/04 08:42:38;;;;;;;4.13;2.33;;;;;;;7.03;100.00;100246.84;4968866;28;20038;-76
2023/01/04 08:45:04;;;;;;;4.67;2.60;;;;;;;7.08;100.00;100239.25;5000875;28;20117;-74
2023/01/04 08:47:31;;;;;;;2.78;2.10;;;;;;;7.09;100.00;100235.59;4985669;28;20025;-74
2023/01/04 08:49:57;;;;;;;3.22;2.45;;;;;;;7.17;100.00;100227.72;4969027;28;20163;-72
2023/01/04 08:52:23;;;;;;;5.15;2.85;;;;;;;7.20;100.00;100221.28;4992886;28;20037;-75
2023/01/04 08:54:48;;;;;;;3.03;2.33;;;;;;;7.22;100.00;100227.28;4986578;28;20048;-73
2023/01/04 08:57:17;;;;;;;3.85;2.20;;;;;;;7.35;100.00;100218.88;4984981;28;20034;-75
2023/01/04 08:59:43;;;;;;;3.20;2.38;;;;;;;7.35;100.00;100213.59;4994036;28;20037;-75
2023/01/04 09:02:25;;;;;;;3.85;2.28;;;;;;;7.35;100.00;100213.59;4989687;28;20407;-74
2023/01/04 09:04:58;;;;;;;3.42;2.38;;;;;;;7.42;100.00;100195.22;4991710;28;20052;-72
2023/01/04 09:07:24;;;;;;;3.35;2.30;;;;;;;7.46;100.00;100200.06;4980204;28;20137;-76
2023/01/04 09:09:49;;;;;;;;;;;;;;;7.51;100.00;100197.75;4991923;28;20038;-76
2023/01/04 09:12:15;;;;;;;3.35;2.03;;;;;;;7.55;100.00;100187.66;4991764;28;19909;-76
2023/01/04 09:14:40;;;;;;;5.27;2.50;;;;;;;7.59;100.00;100181.06;4988557;28;20038;-75
2023/01/04 09:17:06;;;;;;;3.13;2.30;;;;;;;7.61;100.00;100179.91;4968511;28;20034;-75
2023/01/04 09:19:31;;;;;;;3.55;2.50;;;;;;;7.65;100.00;100172.44;4985029;28;20899;-75
2023/01/04 09:21:57;;;;;;;3.37;2.40;;;;;;;7.71;100.00;100171.00;4971301;28;20502;-72
2023/01/04 09:24:22;;;;;;;2.75;2.08;;;;;;;7.75;100.00;100170.53;4991241;28;20576;-74
2023/01/04 09:26:48;;;;;;;3.05;2.42;;;;;;;7.83;100.00;100159.91;4990000;28;20041;-76
2023/01/04 09:29:14;;;;;;;2.95;2.28;;;;;;;7.89;100.00;100163.78;4995789;28;20030;-75
2023/01/04 09:31:39;;;;;;;3.20;2.28;;;;;;;7.89;100.00;100155.81;4986505;28;20034;-74
2023/01/04 09:34:05;;;;;;;3.97;2.42;;;;;;;7.86;100.00;100164.09;4968488;28;20081;-74
2023/01/04 09:36:31;;;;;;;3.83;2.80;;;;;;;7.93;100.00;100151.81;4994233;28;20053;-75
2023/01/04 09:38:56;;;;;;;3.75;2.40;;;;;;;7.98;100.00;100154.00;4987230;28;20053;-76
2023/01/04 09:41:27;;;;;;;4.00;2.60;;;;;;;8.04;100.00;100140.06;4989331;28;20491;-72
2023/01/04 09:44:01;;;;;;;2.97;2.08;;;;;;;8.07;100.00;100154.88;4968042;28;20030;-75
2023/01/04 09:46:45;;;;;;;3.63;2.25;;;;;;;8.17;100.00;100145.78;4985542;28;20349;-75
2023/01/04 09:49:21;;;;;;;3.50;2.40;;;;;;;8.15;100.00;100139.78;5007680;23;20407;-86
2023/01/04 09:52:16;;;;;;;3.83;2.63;;;;;;;8.19;100.00;100134.97;5003979;28;20201;-85
2023/01/04 09:54:57;;;;;;;3.70;2.58;;;;;;;8.24;100.00;100127.31;4977844;28;20054;-84
2023/01/04 09:57:31;;;;;;;3.13;2.30;;;;;;;8.31;100.00;100127.50;4972005;28;20120;-89
2023/01/04 10:00:01;;;;;;;3.03;2.33;;;;;;;8.35;100.00;100131.53;5008798;28;20030;-87
2023/01/04 10:03:04;;;;;;;3.17;1.95;;;;;;;8.41;100.00;100125.59;5008160;28;20026;-87
2023/01/04 10:05:31;;;;;;;3.42;2.10;;;;;;;8.41;100.00;100117.63;4933595;28;20054;-87
2023/01/04 10:07:57;;;;;;;3.47;2.28;;;;;;;8.39;100.00;100114.25;4952346;29;20039;-86
2023/01/04 10:10:56;;;;;;;2.42;1.80;;;;;;;8.42;100.00;100104.13;4937035;29;20046;-86
2023/01/04 10:13:48;;;;;;;2.03;1.60;;;;;;;8.41;100.00;100109.63;4913881;29;20046;-87
2023/01/04 10:16:14;;;;;;;2.85;2.03;;;;;;;8.47;100.00;100108.97;4952621;29;20066;-87
2023/01/04 10:19:05;;;;;;;3.67;2.10;;;;;;;8.49;100.00;100103.47;4937057;29;20109;-87
2023/01/04 10:21:39;;;;;;;2.83;2.03;;;;;;;8.49;100.00;100103.47;4937384;29;20086;-88
2023/01/04 10:24:13;;;;;;;2.83;1.55;;;;;;;8.54;100.00;100095.81;4948698;29;20180;-86
2023/01/04 10:26:47;;;;;;;3.70;1.50;;;;;;;8.55;100.00;100084.22;4951358;29;20047;-85
2023/01/04 10:29:45;;;;;;;1.15;1.05;;;;;;;8.63;100.00;100102.81;4956152;28;20106;-84
2023/01/04 10:32:15;;;;;;;1.20;1.10;;;;;;;8.63;100.00;100094.84;4965814;29;20723;-87
2023/01/04 10:34:44;;;;;;;2.08;1.02;;;;;;;8.61;100.00;100089.66;4949386;29;20045;-88
2023/01/04 10:37:22;;;;;;;1.38;1.25;;;;;;;8.64;100.00;100084.03;4952246;29;20047;-89
2023/01/04 10:39:53;;;;;;;1.10;1.00;;;;;;;8.69;100.00;100085.38;4991620;28;20053;-87
2023/01/04 10:43:17;;;;;;;1.50;1.20;;;;;;;8.72;100.00;100075.22;5021616;28;20034;-84
2023/01/04 10:45:58;;;;;;;1.30;1.10;;;;;;;8.70;100.00;100066.56;4917759;29;20111;-86
2023/01/04 10:48:49;;;;;;;1.58;0.90;;;;;;;8.76;100.00;100067.75;4952857;28;20039;-86
2023/01/04 10:51:19;;;;;;;1.60;0.43;;;;;;;8.80;100.00;100066.38;4941014;29;20040;-87
2023/01/04 10:53:58;;;;;;;0.50;0.50;;;;;;;8.84;100.00;100068.53;4934684;29;20073;-87
2023/01/04 10:56:34;;;;;;;1.23;1.02;;;;;;;8.92;100.00;100059.75;4941591;29;20067;-87
2023/01/04 10:59:11;;;;;;;0.85;0.73;;;;;;;8.86;100.00;100061.22;4937486;29;20044;-88
2023/01/04 11:01:44;;;;;;;0.40;0.30;;;;;;;8.94;100.00;100046.25;4929392;29;20138;-87
2023/01/04 11:04:24;;;;;;;2.25;0.50;;;;;;;8.99;100.00;100050.09;4916743;29;20040;-88
2023/01/04 11:07:01;;;;;;;0.63;0.38;;;;;;;9.08;100.00;100042.88;4934911;29;20044;-89
2023/01/04 11:09:31;;;;;;;0.35;0.30;;;;;;;9.16;100.00;100047.38;4919482;29;20408;-85
2023/01/04 11:11:57;;;;;;;0.68;0.30;;;;;;;9.16;100.00;100042.88;4919228;29;20042;-89
2023/01/04 11:14:24;;;;;;;0.37;0.37;;;;;;;9.21;100.00;100031.72;4903098;29;20040;-88
2023/01/04 11:16:55;;;;;;;0.22;0.22;;;;;;;9.26;100.00;100035.50;4918426;29;20036;-89
2023/01/04 11:19:21;;;;;;;0.75;0.40;;;;;;;9.25;100.00;100025.88;4955373;28;20046;-89
2023/01/04 11:22:25;;;;;;;0.38;0.30;;;;;;;9.21;100.00;100019.22;5008173;28;20116;-89
2023/01/04 11:24:55;;;;;;;0.10;0.10;;;;;;;9.23;100.00;100011.91;4983451;28;20047;-88
2023/01/04 11:27:25;;;;;;;0.30;0.30;;;;;;;9.28;100.00;100017.53;4984842;28;20022;-90
2023/01/04 11:30:00;;;;;;;0.73;0.50;;;;;;;9.28;100.00;100012.22;4974914;28;20037;-91
2023/01/04 11:32:43;;;;;;;0.55;0.30;;;;;;;9.28;100.00;100017.53;5006906;28;20026;-88
2023/01/04 11:35:09;;;;;;;0.45;0.30;;;;;;;9.27;100.00;100010.56;4968374;28;20458;-89
2023/01/04 11:37:37;;;;;;;0.50;0.40;;;;;;;9.29;100.00;99997.03;4990996;28;20022;-88
2023/01/04 11:40:15;;;;;;;0.30;0.30;;;;;;;9.30;100.00;99996.06;4974328;28;20050;-88
2023/01/04 11:42:40;;;;;;;0.77;0.47;;;;;;;9.33;100.00;99989.56;5006103;28;20042;-91
2023/01/04 11:45:15;;;;;;;0.37;0.33;;;;;;;9.32;100.00;99991.41;5007904;28;20073;-89
2023/01/04 11:48:13;;;;;;;0.32;0.30;;;;;;;9.32;100.00;99977.22;5006934;28;20549;-90
2023/01/04 11:50:44;;;;;;;0.22;0.20;;;;;;;9.33;100.00;99978.91;4918056;29;20121;-88
2023/01/04 11:53:31;;;;;;;0.30;0.30;;;;;;;9.34;100.00;99977.88;4931423;29;20036;-91
2023/01/04 11:56:28;;;;;;;0.20;0.20;;;;;;;9.36;100.00;99975.88;4922753;29;20050;-89
2023/01/04 11:59:14;;;;;;;0.52;0.30;;;;;;;9.48;100.00;99970.00;4855694;29;20105;-89
2023/01/04 12:01:50;;;;;;;0.30;0.30;;;;;;;9.46;100.00;99957.88;4856859;29;20045;-90
2023/01/04 12:04:24;;;;;;;0.35;0.30;;;;;;;9.51;100.00;99952.84;4840582;29;20042;-90
2023/01/04 12:06:57;;;;;;;0.90;0.80;;;;;;;9.55;100.00;99947.97;4841700;29;20416;-90
2023/01/04 12:09:22;;;;;;;0.30;0.30;;;;;;;9.47;100.00;99946.19;4842220;29;20104;-87
2023/01/04 12:11:50;;;;;;;0.50;0.50;;;;;;;9.56;100.00;99937.16;4836701;29;20025;-91
2023/01/04 12:14:22;;;;;;;0.80;0.32;;;;;;;9.53;100.00;99948.16;4857038;29;20691;-89
2023/01/04 12:17:06;;;;;;;2.63;0.47;;;;;;;9.51;100.00;99936.84;4840257;29;20111;-90
2023/01/04 12:19:34;;;;;;;0.45;0.40;;;;;;;9.51;100.00;99934.19;4855588;29;20826;-87
2023/01/04 12:22:01;;;;;;;0.30;0.30;;;;;;;9.55;100.00;99932.81;4825001;29;20442;-90
2023/01/04 12:24:31;;;;;;;0.38;0.38;;;;;;;9.54;100.00;99931.16;4856519;29;20106;-88
2023/01/04 12:26:58;;;;;;;0.30;0.20;;;;;;;9.54;100.00;99927.69;4875020;29;20044;-89